createdAt,value
2022-09-17T06:35:49.567Z,99.90
2022-09-17T06:38:16.432Z,99.90
2022-09-17T06:43:10.877Z,99.90
2022-09-17T06:45:37.991Z,99.90
2022-09-17T06:48:05.550Z,99.90
2022-09-17T06:50:32.479Z,99.90
2022-09-17T06:52:59.359Z,99.90
2022-09-17T06:55:26.445Z,99.90
2022-09-17T06:57:53.379Z,99.90
2022-09-17T07:00:20.566Z,99.90
2022-09-17T07:03:00.961Z,99.90
2022-09-17T07:05:29.935Z,99.90
2022-09-17T07:07:57.377Z,99.90
2022-09-17T07:10:24.400Z,99.90
2022-09-17T07:12:51.391Z,99.90
2022-09-17T07:15:18.392Z,99.90
2022-09-17T07:17:45.329Z,99.90
2022-09-17T07:20:12.710Z,99.90
2022-09-17T07:22:39.889Z,99.90
2022-09-17T07:25:07.938Z,99.90
2022-09-17T07:27:34.811Z,99.90
2022-09-17T07:30:01.957Z,99.90
2022-09-17T07:32:31.937Z,99.90
2022-09-17T07:34:58.827Z,99.90
2022-09-17T07:37:25.993Z,99.90
2022-09-17T07:39:52.915Z,99.90
2022-09-17T07:42:19.878Z,99.90
2022-09-17T07:44:47.101Z,99.90
2022-09-17T07:47:14.059Z,99.90
2022-09-17T07:49:40.946Z,99.90
2022-09-17T07:52:07.863Z,99.90
2022-09-17T07:54:37.014Z,99.90
2022-09-17T07:57:04.737Z,99.90
2022-09-17T07:59:31.919Z,99.90
2022-09-17T08:01:58.891Z,99.90
2022-09-17T08:04:25.925Z,99.90
2022-09-17T08:06:52.784Z,99.90
2022-09-17T08:09:23.553Z,99.90
2022-09-17T08:11:57.538Z,99.90
2022-09-17T08:14:29.170Z,99.90
2022-09-17T08:16:57.181Z,99.90
2022-09-17T08:19:24.592Z,99.90
2022-09-17T08:21:52.251Z,99.90
2022-09-17T08:24:19.175Z,99.90
2022-09-17T08:26:46.073Z,99.90
2022-09-17T08:29:13.079Z,99.90
2022-09-17T08:31:40.178Z,99.90
2022-09-17T08:34:10.456Z,99.90
2022-09-17T08:36:37.416Z,99.90
2022-09-17T08:41:44.678Z,97.50
2022-09-17T08:44:15.617Z,97.80
2022-09-17T08:46:47.790Z,97.50
2022-09-17T08:49:31.811Z,96.90
2022-09-17T08:52:34.629Z,96.30
2022-09-17T08:55:13.422Z,97.70
2022-09-17T08:58:04.854Z,98.30
2022-09-17T09:00:51.077Z,98.40
2022-09-17T09:03:25.638Z,95.80
2022-09-17T09:05:53.440Z,94.90
2022-09-17T09:08:33.752Z,96.90
2022-09-17T09:11:07.531Z,99.90
2022-09-17T09:13:40.638Z,99.90
2022-09-17T09:16:19.030Z,99.90
2022-09-17T09:18:51.559Z,99.90
2022-09-17T09:21:29.788Z,99.90
2022-09-17T09:24:14.719Z,99.90
2022-09-17T09:27:04.427Z,99.90
2022-09-17T09:29:49.836Z,99.90
2022-09-17T09:32:44.619Z,99.90
2022-09-17T09:35:31.334Z,99.90
2022-09-17T09:38:06.529Z,99.90
2022-09-17T09:40:44.994Z,99.90
2022-09-17T09:43:20.273Z,99.90
2022-09-17T09:45:55.863Z,99.90
2022-09-17T09:48:31.235Z,99.90
2022-09-17T09:51:07.735Z,99.90
2022-09-17T09:53:37.558Z,99.60
2022-09-17T09:56:27.303Z,99.90
2022-09-17T09:58:54.288Z,99.90
2022-09-17T10:01:21.371Z,99.90
2022-09-17T10:03:52.026Z,98.20
2022-09-17T10:06:22.386Z,96.70
2022-09-17T10:11:33.175Z,97.70
2022-09-17T10:16:47.123Z,92.60
2022-09-17T10:21:46.651Z,91.80
2022-09-17T10:24:23.512Z,93.60
2022-09-17T10:34:22.586Z,82.20
2022-09-17T10:36:50.293Z,83.40
2022-09-17T10:39:44.167Z,81.50
2022-09-17T10:42:16.660Z,82.40
2022-09-17T10:44:54.071Z,79.90
2022-09-17T10:47:36.118Z,80.80
2022-09-17T10:52:36.251Z,76.90
2022-09-17T10:55:21.148Z,74.30
2022-09-17T10:58:05.105Z,74.70
2022-09-17T11:01:09.529Z,75.90
2022-09-17T11:03:39.132Z,75.50
2022-09-17T11:06:31.865Z,74.10
2022-09-17T11:09:30.622Z,76.80
2022-09-17T11:12:35.218Z,74.90
2022-09-17T11:15:17.471Z,75.60
2022-09-17T11:18:25.863Z,73.70
2022-09-17T11:21:08.810Z,73.10
2022-09-17T11:24:06.514Z,73.00
2022-09-17T11:26:51.054Z,72.20
2022-09-17T11:29:51.892Z,75.40
2022-09-17T11:32:50.793Z,74.70
2022-09-17T11:35:24.668Z,74.90
2022-09-17T11:38:18.173Z,73.40
2022-09-17T11:40:56.784Z,75.20
2022-09-17T11:43:39.620Z,74.60
2022-09-17T11:46:35.965Z,74.00
2022-09-17T11:49:18.066Z,73.30
2022-09-17T11:52:12.066Z,73.80
2022-09-17T11:55:09.175Z,74.10
2022-09-17T11:57:43.153Z,74.00
2022-09-17T12:00:15.963Z,77.70
2022-09-17T12:02:50.694Z,77.30
2022-09-17T12:05:47.169Z,78.40
2022-09-17T12:08:31.053Z,76.90
2022-09-17T12:11:18.630Z,77.00
2022-09-17T12:13:57.070Z,73.80
2022-09-17T12:16:39.710Z,71.60
2022-09-17T12:19:21.984Z,74.60
2022-09-17T12:22:04.779Z,74.00
2022-09-17T12:24:32.548Z,75.20
2022-09-17T12:27:08.384Z,76.00
2022-09-17T12:30:00.753Z,77.30
2022-09-17T12:32:57.936Z,78.30
2022-09-17T12:36:10.332Z,74.90
2022-09-17T12:39:03.241Z,73.80
2022-09-17T12:41:59.571Z,75.00
2022-09-17T12:44:35.804Z,75.40
2022-09-17T12:47:29.006Z,75.90
2022-09-17T12:50:20.755Z,77.90
2022-09-17T12:53:21.406Z,77.80
2022-09-17T12:56:03.149Z,76.10
2022-09-17T12:58:35.828Z,77.40
2022-09-17T13:01:14.301Z,77.90
2022-09-17T13:03:47.910Z,79.10
2022-09-17T13:06:26.339Z,77.50
2022-09-17T13:09:09.549Z,79.20
2022-09-17T13:11:49.173Z,77.80
2022-09-17T13:14:46.789Z,79.60
2022-09-17T13:17:28.666Z,80.00
2022-09-17T13:19:59.625Z,81.10
2022-09-17T13:22:34.649Z,80.10
2022-09-17T13:25:08.061Z,80.70
2022-09-17T13:27:38.353Z,80.20
2022-09-17T13:30:07.428Z,83.10
2022-09-17T13:32:38.868Z,80.90
2022-09-17T13:35:11.717Z,80.80
2022-09-17T13:37:53.821Z,83.10
2022-09-17T13:40:24.522Z,82.80
2022-09-17T13:43:14.348Z,81.90
2022-09-17T13:45:59.499Z,84.30
2022-09-17T13:48:32.689Z,84.00
2022-09-17T13:51:31.989Z,88.90
2022-09-17T13:54:05.114Z,86.50
2022-09-17T13:56:36.948Z,84.20
2022-09-17T13:59:28.007Z,85.70
2022-09-17T14:02:27.464Z,92.30
2022-09-17T14:05:34.858Z,93.60
2022-09-17T14:08:29.328Z,94.00
2022-09-17T14:11:00.963Z,97.20
2022-09-17T14:13:43.111Z,96.00
2022-09-17T14:16:46.497Z,99.90
2022-09-17T14:19:16.265Z,99.90
2022-09-17T14:22:03.488Z,99.90
2022-09-17T14:24:38.257Z,99.90
2022-09-17T14:27:13.478Z,99.90
2022-09-17T14:30:04.287Z,99.90
2022-09-17T14:32:55.937Z,99.90
2022-09-17T14:35:41.428Z,99.90
2022-09-17T14:38:44.387Z,99.90
2022-09-17T14:41:11.312Z,99.90
2022-09-17T14:44:02.478Z,99.80
2022-09-17T14:46:49.710Z,99.90
2022-09-17T14:51:53.975Z,99.90
2022-09-17T14:54:22.638Z,99.90
2022-09-17T14:56:56.749Z,99.90
2022-09-17T14:59:46.576Z,99.90
2022-09-17T15:02:35.168Z,99.90
2022-09-17T15:05:04.355Z,99.90
2022-09-17T15:07:31.560Z,99.90
2022-09-17T15:10:15.724Z,99.90
2022-09-17T15:12:44.595Z,99.90
2022-09-17T15:15:23.788Z,99.90
2022-09-17T15:17:52.131Z,99.90
2022-09-17T15:20:23.284Z,99.90
2022-09-17T15:23:07.576Z,99.90
2022-09-17T15:25:36.785Z,99.90
2022-09-17T15:51:32.204Z,99.90
2022-09-17T15:54:06.970Z,99.90
2022-09-17T15:56:37.059Z,99.90
2022-09-17T15:59:30.891Z,99.90
2022-09-17T16:02:00.285Z,99.90
2022-09-17T16:04:29.062Z,99.90
2022-09-17T16:07:08.572Z,99.90
2022-09-17T16:09:51.861Z,99.90
2022-09-17T16:14:57.250Z,99.90
2022-09-17T16:17:41.111Z,99.90
2022-09-17T16:20:16.817Z,99.90
2022-09-17T16:25:17.375Z,99.90
2022-09-17T16:28:09.195Z,99.90
2022-09-17T16:30:36.376Z,99.90
2022-09-17T16:33:04.176Z,99.90
2022-09-17T16:35:31.113Z,99.90
2022-09-17T16:37:58.058Z,99.90
2022-09-17T16:40:28.268Z,99.90
2022-09-17T16:42:55.380Z,99.90
2022-09-17T16:45:26.633Z,99.90
2022-09-17T16:47:56.038Z,99.90
2022-09-17T16:50:23.297Z,99.90
2022-09-17T16:52:50.214Z,99.90
2022-09-17T16:55:18.538Z,99.90
2022-09-17T16:57:46.470Z,99.90
2022-09-17T17:00:17.282Z,99.90
2022-09-17T17:02:45.291Z,99.90
2022-09-17T17:05:12.252Z,99.90
2022-09-17T17:07:41.078Z,99.90
2022-09-17T17:10:12.159Z,99.90
2022-09-17T17:12:42.236Z,99.90
2022-09-17T17:15:10.625Z,99.90
2022-09-17T17:17:39.307Z,99.90
2022-09-17T17:20:13.676Z,99.90
2022-09-17T17:22:44.153Z,99.90
2022-09-17T17:25:13.468Z,99.90
2022-09-17T17:27:42.058Z,99.90
2022-09-17T17:30:17.727Z,99.90
2022-09-17T17:35:18.449Z,99.90
2022-09-17T17:37:49.160Z,99.90
2022-09-17T17:40:17.234Z,99.90
2022-09-17T17:42:48.422Z,99.90
2022-09-17T17:45:17.048Z,99.90
2022-09-17T17:47:45.471Z,99.90
2022-09-17T17:50:12.530Z,99.90
2022-09-17T17:52:40.991Z,99.90
2022-09-17T17:55:09.092Z,99.90
2022-09-17T17:57:38.903Z,99.90
2022-09-17T18:00:08.217Z,99.90
2022-09-17T18:02:37.009Z,99.90
2022-09-17T18:05:05.987Z,99.90
2022-09-17T18:07:34.854Z,99.90
2022-09-17T18:10:03.363Z,99.90
2022-09-17T18:12:34.059Z,99.90
2022-09-17T18:15:00.952Z,99.90
2022-09-17T18:17:32.082Z,99.90
2022-09-17T18:19:59.940Z,99.90
2022-09-17T18:22:27.473Z,99.90
2022-09-17T18:24:55.043Z,99.90
2022-09-17T18:27:23.569Z,99.90
2022-09-17T18:29:50.827Z,99.90
2022-09-17T18:32:17.699Z,99.90
2022-09-17T18:34:44.586Z,99.90
2022-09-17T18:37:11.453Z,99.90
2022-09-17T18:39:58.114Z,99.90
2022-09-17T18:42:25.676Z,99.90
2022-09-17T18:44:52.569Z,99.90
2022-09-17T18:47:19.518Z,99.90
2022-09-17T18:49:46.450Z,99.90
2022-09-17T18:52:13.420Z,99.90
2022-09-17T18:54:42.834Z,99.90
2022-09-17T18:57:09.736Z,99.90
2022-09-17T18:59:38.354Z,99.90
2022-09-17T19:02:06.798Z,99.90
2022-09-17T19:04:33.773Z,99.90
2022-09-17T19:07:01.049Z,99.90
2022-09-17T19:09:28.006Z,99.90
2022-09-17T19:11:54.886Z,99.90
2022-09-17T19:14:21.782Z,99.90
2022-09-17T19:16:51.063Z,99.90
2022-09-17T19:19:18.327Z,99.90
2022-09-17T19:21:46.219Z,99.90
2022-09-17T19:24:16.760Z,99.90
2022-09-17T19:26:48.814Z,99.90
2022-09-17T19:29:19.063Z,99.90
2022-09-17T19:31:46.964Z,99.90
2022-09-17T19:34:16.081Z,99.90
2022-09-17T19:36:43.112Z,99.90
2022-09-17T19:39:10.303Z,99.90
2022-09-17T19:41:37.817Z,99.90
2022-09-17T19:44:07.094Z,99.90
2022-09-17T19:46:39.501Z,99.90
2022-09-17T19:49:06.779Z,99.90
2022-09-17T19:51:34.023Z,99.90
2022-09-17T19:54:01.228Z,99.90
2022-09-17T19:56:28.346Z,99.90
2022-09-17T19:58:56.692Z,99.90
2022-09-17T20:01:23.683Z,99.90
2022-09-17T20:03:50.612Z,99.90
2022-09-17T20:06:19.086Z,99.90
2022-09-17T20:08:54.488Z,99.90
2022-09-17T20:11:24.287Z,99.90
2022-09-17T20:13:56.050Z,99.90
2022-09-17T20:16:23.174Z,99.90
2022-09-17T20:18:50.826Z,99.90
2022-09-17T20:21:19.251Z,99.90
2022-09-17T20:23:46.555Z,99.90
2022-09-17T20:26:14.368Z,99.90
2022-09-17T20:31:15.508Z,99.90
2022-09-17T20:33:42.919Z,99.90
2022-09-17T20:36:18.158Z,99.90
2022-09-17T20:41:34.070Z,99.90
2022-09-17T20:44:00.978Z,99.90
2022-09-17T20:46:29.521Z,99.90
2022-09-17T20:48:58.141Z,99.90
2022-09-17T20:51:27.829Z,99.90
2022-09-17T20:53:58.190Z,99.90
2022-09-17T20:56:31.514Z,99.90
2022-09-17T20:59:04.051Z,99.90
2022-09-17T21:01:36.949Z,99.90
2022-09-17T21:04:06.289Z,99.90
2022-09-17T21:06:41.191Z,99.90
2022-09-17T21:09:11.988Z,99.90
2022-09-17T21:11:39.283Z,99.90
2022-09-17T21:14:06.408Z,99.90
2022-09-17T21:16:33.463Z,99.90
2022-09-17T21:19:03.520Z,99.90
2022-09-17T21:21:30.488Z,99.90
2022-09-17T21:24:01.226Z,99.90
2022-09-17T21:26:28.571Z,99.90
2022-09-17T21:28:56.997Z,99.90
2022-09-17T21:31:32.358Z,99.90
2022-09-17T21:34:02.298Z,99.90
2022-09-17T21:36:31.615Z,99.90
2022-09-17T21:39:00.897Z,99.90
2022-09-17T21:41:28.417Z,99.90
2022-09-17T21:43:55.551Z,99.90
2022-09-17T21:46:24.687Z,99.90
2022-09-17T21:48:57.273Z,99.90
2022-09-17T21:51:32.049Z,99.90
2022-09-17T21:54:01.054Z,99.90
2022-09-17T21:56:29.438Z,99.90
2022-09-17T21:59:02.184Z,99.90
2022-09-17T22:01:32.171Z,99.90
2022-09-17T22:04:00.374Z,99.90
2022-09-17T22:06:30.163Z,99.90
2022-09-17T22:08:58.852Z,99.90
2022-09-17T22:11:33.098Z,99.90
2022-09-17T22:14:05.207Z,99.90
2022-09-17T22:16:35.843Z,99.90
2022-09-17T22:19:04.866Z,99.90
2022-09-17T22:21:35.264Z,99.90
2022-09-17T22:24:04.027Z,99.90
2022-09-17T22:26:33.642Z,99.90
2022-09-17T22:29:06.327Z,99.90
2022-09-17T22:31:33.912Z,99.90
2022-09-17T22:34:01.238Z,99.90
2022-09-17T22:36:28.901Z,99.90
2022-09-17T22:38:57.963Z,99.90
2022-09-17T22:41:30.043Z,99.90
2022-09-17T22:43:59.169Z,99.90
2022-09-17T22:46:34.550Z,99.90
2022-09-17T22:49:01.763Z,99.90
2022-09-17T22:51:30.402Z,99.90
2022-09-17T22:53:58.776Z,99.90
2022-09-17T22:56:27.377Z,99.90
2022-09-17T22:58:56.257Z,99.90
2022-09-17T23:01:26.026Z,99.90
2022-09-17T23:03:53.115Z,99.90
2022-09-17T23:06:22.621Z,99.90
2022-09-17T23:08:50.064Z,99.90
2022-09-17T23:11:38.143Z,99.90
2022-09-17T23:14:09.210Z,99.90
2022-09-17T23:16:39.786Z,99.90
2022-09-17T23:19:07.119Z,99.90
2022-09-17T23:21:34.267Z,99.90
2022-09-17T23:24:01.634Z,99.90
2022-09-17T23:26:28.713Z,99.90
2022-09-17T23:28:56.133Z,99.90
2022-09-17T23:31:27.013Z,99.90
2022-09-17T23:33:55.296Z,99.90
2022-09-17T23:36:28.052Z,99.90
2022-09-17T23:38:56.086Z,99.90
2022-09-17T23:41:25.577Z,99.90
2022-09-17T23:43:55.762Z,99.90
2022-09-17T23:46:24.888Z,99.90
2022-09-17T23:48:53.523Z,99.90
2022-09-17T23:51:22.146Z,99.90
2022-09-17T23:53:49.200Z,99.90
2022-09-17T23:56:19.535Z,99.90
2022-09-17T23:58:46.483Z,99.90
